createdAt,value
2022-08-25T00:04:23.024Z,24.40
2022-08-25T00:09:27.799Z,24.40
2022-08-25T00:14:34.160Z,24.40
2022-08-25T00:19:38.150Z,24.40
2022-08-25T00:24:40.443Z,24.30
2022-08-25T00:29:42.676Z,24.30
2022-08-25T00:34:46.005Z,24.30
2022-08-25T00:39:48.401Z,24.30
2022-08-25T00:44:50.910Z,24.20
2022-08-25T00:49:58.899Z,24.20
2022-08-25T01:00:20.835Z,24.00
2022-08-25T01:05:24.123Z,24.00
2022-08-25T01:10:27.903Z,23.90
2022-08-25T01:15:48.898Z,23.90
2022-08-25T01:20:52.723Z,23.80
2022-08-25T01:31:23.396Z,23.70
2022-08-25T01:36:29.239Z,23.80
2022-08-25T01:46:42.520Z,23.70
2022-08-25T01:51:51.509Z,23.70
2022-08-25T01:56:53.963Z,23.60
2022-08-25T02:01:59.676Z,23.60
2022-08-25T02:07:04.940Z,23.50
2022-08-25T02:12:09.442Z,23.50
2022-08-25T02:17:11.708Z,23.50
2022-08-25T02:22:13.976Z,23.50
2022-08-25T02:27:16.352Z,23.50
2022-08-25T02:32:18.623Z,23.50
2022-08-25T02:37:20.905Z,23.50
2022-08-25T02:42:24.542Z,23.50
2022-08-25T02:47:27.192Z,23.50
2022-08-25T02:52:29.576Z,23.50
2022-08-25T02:57:32.007Z,23.40
2022-08-25T03:02:34.287Z,23.30
2022-08-25T03:07:38.438Z,23.20
2022-08-25T03:12:42.590Z,23.30
2022-08-25T03:17:46.423Z,23.10
2022-08-25T03:22:49.408Z,22.70
2022-08-25T03:27:52.183Z,22.70
2022-08-25T03:32:54.566Z,22.80
2022-08-25T03:37:58.202Z,22.90
2022-08-25T03:43:00.602Z,23.10
2022-08-25T03:48:02.969Z,23.10
2022-08-25T03:53:05.274Z,23.20
2022-08-25T03:58:07.604Z,23.30
2022-08-25T04:03:09.920Z,23.40
2022-08-25T04:08:12.593Z,23.40
2022-08-25T04:13:14.874Z,23.40
2022-08-25T04:18:17.167Z,23.40
2022-08-25T04:23:19.428Z,23.50
2022-08-25T04:28:21.732Z,23.50
2022-08-25T04:33:24.002Z,23.50
2022-08-25T04:38:27.344Z,23.50
2022-08-25T04:43:31.634Z,23.60
2022-08-25T04:48:34.779Z,23.60
2022-08-25T04:53:37.791Z,23.70
2022-08-25T04:58:41.271Z,23.70
2022-08-25T05:03:45.970Z,23.80
2022-08-25T05:08:48.323Z,23.80
2022-08-25T05:13:52.887Z,23.90
2022-08-25T05:18:55.942Z,24.10
2022-08-25T05:23:59.967Z,24.20
2022-08-25T05:29:04.643Z,24.40
2022-08-25T05:34:08.311Z,24.60
2022-08-25T05:39:11.169Z,24.60
2022-08-25T05:44:15.914Z,24.70
2022-08-25T05:49:20.296Z,24.80
2022-08-25T05:54:22.662Z,24.90
2022-08-25T05:59:25.163Z,25.00
2022-08-25T06:04:28.276Z,25.10
2022-08-25T06:09:30.523Z,25.30
2022-08-25T06:14:33.716Z,25.50
2022-08-25T06:19:37.116Z,25.60
2022-08-25T06:24:44.101Z,26.20
2022-08-25T06:29:46.463Z,26.90
2022-08-25T06:34:48.720Z,27.70
2022-08-25T06:39:51.327Z,28.50
2022-08-25T06:44:53.622Z,30.90
2022-08-25T06:49:55.887Z,31.70
2022-08-25T06:54:58.203Z,31.40
2022-08-25T07:00:00.474Z,31.50
2022-08-25T07:05:03.021Z,31.90
2022-08-25T07:10:07.699Z,33.10
2022-08-25T07:15:19.868Z,32.50
2022-08-25T07:25:29.769Z,30.90
2022-08-25T07:30:32.272Z,30.30
2022-08-25T07:35:37.693Z,30.10
2022-08-25T07:40:40.307Z,29.90
2022-08-25T07:45:49.003Z,29.60
2022-08-25T07:50:52.283Z,29.40
2022-08-25T07:55:54.555Z,29.30
2022-08-25T08:00:56.874Z,29.20
2022-08-25T08:05:59.842Z,29.20
2022-08-25T08:11:05.112Z,29.10
2022-08-25T08:16:10.670Z,29.50
2022-08-25T08:21:19.053Z,29.60
2022-08-25T08:26:36.370Z,29.50
2022-08-25T08:31:39.004Z,29.70
2022-08-25T08:36:41.567Z,29.90
2022-08-25T08:58:09.568Z,30.60
2022-08-25T09:03:37.040Z,30.80
2022-08-25T09:08:44.930Z,30.80
2022-08-25T09:35:00.938Z,31.10
2022-08-25T09:40:04.307Z,31.10
2022-08-25T09:45:11.982Z,31.10
2022-08-25T09:50:18.514Z,31.20
2022-08-25T09:55:28.575Z,31.10
2022-08-25T10:00:33.863Z,30.70
2022-08-25T10:11:13.083Z,30.90
2022-08-25T10:16:32.240Z,30.70
2022-08-25T10:21:39.166Z,31.00
2022-08-25T10:31:59.465Z,30.80
2022-08-25T10:37:19.076Z,30.90
2022-08-25T10:48:31.043Z,30.30
2022-08-25T11:04:19.060Z,30.20
2022-08-25T11:09:32.164Z,28.70
2022-08-25T11:15:00.189Z,28.40
2022-08-25T11:20:08.875Z,27.90
2022-08-25T11:25:19.205Z,27.70
2022-08-25T11:30:25.818Z,27.90
2022-08-25T11:35:41.723Z,28.30
2022-08-25T11:51:43.752Z,27.80
2022-08-25T11:57:08.819Z,27.70
2022-08-25T12:08:21.951Z,27.70
2022-08-25T12:13:47.684Z,27.80
2022-08-25T12:18:50.564Z,27.70
2022-08-25T12:24:12.982Z,27.90
2022-08-25T12:29:46.301Z,27.90
2022-08-25T12:45:33.511Z,27.80
2022-08-25T12:50:43.295Z,27.40
2022-08-25T12:55:51.786Z,27.30
2022-08-25T13:11:30.965Z,27.20
2022-08-25T13:16:35.126Z,27.50
2022-08-25T13:21:41.917Z,27.60
2022-08-25T13:26:48.132Z,27.80
2022-08-25T13:37:32.470Z,27.40
2022-08-25T13:42:36.553Z,27.60
2022-08-25T13:47:43.502Z,27.40
2022-08-25T13:52:54.770Z,27.20
2022-08-25T13:57:59.795Z,27.30
2022-08-25T14:03:08.686Z,27.40
2022-08-25T14:08:33.993Z,27.40
2022-08-25T14:13:39.482Z,27.30
2022-08-25T14:18:51.190Z,27.30
2022-08-25T14:23:55.382Z,27.30
2022-08-25T14:28:57.755Z,27.20
2022-08-25T14:34:12.716Z,26.80
2022-08-25T14:39:15.474Z,26.80
2022-08-25T14:44:18.139Z,26.60
2022-08-25T14:49:25.487Z,26.50
2022-08-25T14:54:28.162Z,26.30
2022-08-25T14:59:32.850Z,26.40
2022-08-25T15:04:37.268Z,26.40
2022-08-25T15:09:40.014Z,26.60
2022-08-25T15:14:42.323Z,26.50
2022-08-25T15:19:47.705Z,26.50
2022-08-25T15:24:50.513Z,26.70
2022-08-25T15:29:55.085Z,26.60
2022-08-25T15:34:57.778Z,26.60
2022-08-25T15:40:00.209Z,26.60
2022-08-25T15:45:02.590Z,26.60
2022-08-25T15:50:14.637Z,26.70
2022-08-25T15:55:18.221Z,26.80
2022-08-25T16:00:22.350Z,26.80
2022-08-25T16:05:26.100Z,26.80
2022-08-25T16:10:33.188Z,26.80
2022-08-25T16:15:39.070Z,26.80
2022-08-25T16:20:45.923Z,26.60
2022-08-25T16:25:48.450Z,26.60
2022-08-25T16:30:52.933Z,26.40
2022-08-25T16:36:06.741Z,26.20
2022-08-25T16:41:11.317Z,26.10
2022-08-25T16:46:16.384Z,26.20
2022-08-25T16:51:22.611Z,25.80
2022-08-25T16:56:28.458Z,25.60
2022-08-25T17:01:34.091Z,25.60
2022-08-25T17:06:40.754Z,25.60
2022-08-25T17:11:56.765Z,25.60
2022-08-25T17:16:59.127Z,25.30
2022-08-25T17:22:01.419Z,25.30
2022-08-25T17:27:05.655Z,25.00
2022-08-25T17:32:10.013Z,25.00
2022-08-25T17:37:13.683Z,25.00
2022-08-25T17:42:16.583Z,24.90
2022-08-25T17:47:20.453Z,24.70
2022-08-25T17:52:25.626Z,24.60
2022-08-25T17:57:28.006Z,24.70
2022-08-25T18:02:30.639Z,24.70
2022-08-25T18:07:33.338Z,24.70
2022-08-25T18:12:37.002Z,24.70
2022-08-25T18:17:39.875Z,24.80
2022-08-25T18:22:44.087Z,24.90
2022-08-25T18:27:46.528Z,25.00
2022-08-25T18:32:50.420Z,25.00
2022-08-25T18:38:13.143Z,25.00
2022-08-25T18:43:15.432Z,25.10
2022-08-25T18:48:20.089Z,25.10
2022-08-25T18:53:30.060Z,25.30
2022-08-25T18:58:39.758Z,25.50
2022-08-25T19:03:44.491Z,25.60
2022-08-25T19:08:47.603Z,25.70
2022-08-25T19:13:51.216Z,25.60
2022-08-25T19:18:54.276Z,25.60
2022-08-25T19:23:56.614Z,25.60
2022-08-25T19:28:59.229Z,25.60
2022-08-25T19:34:02.059Z,25.60
2022-08-25T19:39:06.075Z,25.60
2022-08-25T19:44:08.371Z,25.40
2022-08-25T19:49:15.056Z,25.40
2022-08-25T19:54:21.947Z,25.40
2022-08-25T19:59:42.238Z,25.30
2022-08-25T20:04:49.418Z,25.30
2022-08-25T20:09:54.435Z,25.50
2022-08-25T20:14:57.656Z,25.50
2022-08-25T20:20:04.727Z,25.40
2022-08-25T20:25:14.099Z,25.40
2022-08-25T20:30:23.164Z,25.30
2022-08-25T20:35:27.812Z,25.30
2022-08-25T20:40:31.057Z,25.30
2022-08-25T20:45:33.506Z,25.10
2022-08-25T20:50:38.934Z,25.00
2022-08-25T20:55:42.686Z,25.00
2022-08-25T21:00:46.640Z,25.00
2022-08-25T21:05:49.447Z,24.90
2022-08-25T21:10:56.506Z,24.80
2022-08-25T21:16:02.171Z,24.80
2022-08-25T21:21:12.393Z,24.80
2022-08-25T21:26:18.883Z,24.80
2022-08-25T21:31:22.196Z,24.70
2022-08-25T21:36:26.204Z,24.80
2022-08-25T21:41:31.326Z,24.70
2022-08-25T21:46:35.316Z,24.80
2022-08-25T21:51:42.514Z,24.70
2022-08-25T22:01:57.655Z,24.80
2022-08-25T22:07:00.683Z,24.70
2022-08-25T22:12:05.502Z,24.60
2022-08-25T22:17:11.139Z,24.70
2022-08-25T22:22:20.907Z,24.80
2022-08-25T22:27:23.767Z,24.80
2022-08-25T22:32:26.155Z,24.70
2022-08-25T22:37:28.392Z,24.60
2022-08-25T22:42:32.795Z,24.70
2022-08-25T22:47:35.258Z,24.80
2022-08-25T22:52:38.250Z,24.70
2022-08-25T22:57:45.082Z,24.70
2022-08-25T23:02:47.943Z,24.60
2022-08-25T23:07:50.614Z,24.60
2022-08-25T23:12:53.076Z,24.60
2022-08-25T23:17:55.418Z,24.50
2022-08-25T23:22:57.996Z,24.50
2022-08-25T23:28:00.623Z,24.40
2022-08-25T23:33:03.593Z,24.40
2022-08-25T23:38:06.351Z,24.30
2022-08-25T23:43:09.599Z,24.30
2022-08-25T23:48:11.923Z,24.20
2022-08-25T23:53:16.927Z,24.30
2022-08-25T23:58:19.421Z,24.20
